Time;durP1;ratioP1;P1;durP2;ratioP2;P2;SDS_P1;SDS_P2;PMS_P1;PMS_P2;Temp;Humidity;BMP_temperature;BMP_pressure;BME280_temperature;BME280_humidity;BME280_pressure;Samples;Min_cycle;Max_cycle;Signal;HPM_P1;HPM_P2
2021/06/02 03:29:43;;;;;;;6.87;6.37;;;14.10;69.50;;;;;;5387966;23;20471;31
2021/06/02 04:20:15;;;;;;;5.63;5.33;;;13.60;70.00;;;;;;4978764;23;21146;31
2021/06/02 04:28:21;;;;;;;8.77;7.97;;;13.60;70.70;;;;;;5703792;23;20748;-90
2021/06/02 04:30:58;;;;;;;6.63;6.13;;;14.10;74.90;;;;;;5840741;23;20785;-88
2021/06/02 04:38:37;;;;;;;6.10;5.87;;;14.10;69.90;;;;;;5767568;23;20466;-88
2021/06/02 04:41:11;;;;;;;6.77;6.27;;;13.90;72.40;;;;;;5501949;23;20564;31
2021/06/02 04:46:20;;;;;;;7.20;6.90;;;14.90;66.60;;;;;;5574163;23;20512;-89
2021/06/02 04:48:55;;;;;;;8.80;8.10;;;15.00;65.80;;;;;;5201171;23;21511;31
2021/06/02 04:54:07;;;;;;;7.53;7.03;;;16.10;61.40;;;;;;5409148;23;20483;-87
2021/06/02 05:02:20;;;;;;;6.43;6.03;;;16.50;59.30;;;;;;5037974;23;20467;-90
2021/06/02 05:05:36;;;;;;;8.60;8.00;;;16.80;59.30;;;;;;5153026;23;20476;-90
2021/06/02 05:08:39;;;;;;;6.70;6.30;;;17.20;58.80;;;;;;5019117;28;20412;-91
2021/06/02 05:14:18;;;;;;;6.33;5.83;;;18.00;57.00;;;;;;4735974;26;20505;-90
2021/06/02 05:17:17;;;;;;;6.67;6.27;;;18.40;56.80;;;;;;4980944;28;20476;-90
2021/06/02 05:20:18;;;;;;;7.17;6.57;;;18.40;55.40;;;;;;4981056;28;20418;-92
2021/06/02 05:23:02;;;;;;;6.17;5.87;;;19.10;55.40;;;;;;5210889;23;20478;-88
2021/06/02 05:26:18;;;;;;;7.03;6.53;;;20.50;55.40;;;;;;5016532;28;20424;-89
2021/06/02 05:29:07;;;;;;;6.60;6.20;;;19.00;53.20;;;;;;5035844;28;20470;-90
2021/06/02 05:31:58;;;;;;;6.13;5.73;;;20.00;53.30;;;;;;5034183;28;20538;-89
2021/06/02 05:34:47;;;;;;;6.07;5.67;;;20.40;53.30;;;;;;5144209;23;20522;-89
2021/06/02 05:37:32;;;;;;;7.70;6.40;;;20.70;52.70;;;;;;5196300;23;20493;-88
2021/06/02 05:40:28;;;;;;;5.23;5.03;;;21.10;52.20;;;;;;4994639;28;20421;-89
2021/06/02 05:43:31;;;;;;;5.37;5.17;;;21.30;51.50;;;;;;4993064;28;20485;-90
2021/06/02 05:46:28;;;;;;;6.03;5.73;;;21.10;52.00;;;;;;4992426;28;20413;-85
2021/06/02 05:49:18;;;;;;;7.00;6.60;;;21.20;52.00;;;;;;5009083;23;20562;-89
2021/06/02 05:52:00;;;;;;;6.30;5.70;;;21.40;51.60;;;;;;4947890;29;20610;-85
2021/06/02 05:54:42;;;;;;;6.77;6.27;;;21.80;50.90;;;;;;4957957;29;20435;-90
2021/06/02 05:58:02;;;;;;;5.60;5.40;;;22.40;49.70;;;;;;4953258;29;20449;-89
2021/06/02 06:01:07;;;;;;;5.80;5.50;;;23.10;48.60;;;;;;4932416;29;20439;-92
2021/06/02 06:09:16;;;;;;;6.40;6.00;;;24.60;45.20;;;;;;5084848;23;20275;-90
2021/06/02 06:12:19;;;;;;;4.83;4.73;;;24.50;44.70;;;;;;4317839;28;10000726;-90
2021/06/02 06:15:27;;;;;;;5.17;4.73;;;24.90;44.00;;;;;;5012254;28;20481;-91
2021/06/02 06:18:15;;;;;;;5.60;5.10;;;25.10;43.60;;;;;;5008196;28;20432;-90
2021/06/02 06:23:38;;;;;;;4.67;4.37;;;25.90;41.70;;;;;;5039678;23;20500;-88
2021/06/02 06:29:04;;;;;;;4.63;4.47;;;25.80;41.50;;;;;;4989830;28;20493;-92
2021/06/02 06:34:09;;;;;;;5.07;4.90;;;27.00;39.90;;;;;;5333205;23;20486;-93
2021/06/02 06:36:38;;;;;;;8.23;5.20;;;27.40;39.70;;;;;;5583494;23;20493;-89
2021/06/02 06:39:28;;;;;;;4.93;4.73;;;28.80;38.40;;;;;;5033227;28;20452;-93
2021/06/02 06:44:33;;;;;;;5.37;4.53;;;28.40;36.40;;;;;;5412511;23;20462;-90
2021/06/02 06:47:19;;;;;;;;;;;;;;;;;;;;;
2021/06/02 06:52:37;;;;;;;5.70;5.30;;;28.40;35.00;;;;;;5069349;23;20581;-87
2021/06/02 06:55:11;;;;;;;5.43;4.93;;;28.50;35.50;;;;;;4971939;28;20430;-90
2021/06/02 07:05:42;;;;;;;5.50;5.20;;;29.60;33.70;;;;;;5176669;23;20498;-90
2021/06/02 07:10:41;;;;;;;4.57;4.37;;;30.40;32.80;;;;;;4995808;28;20485;-89
2021/06/02 07:15:51;;;;;;;5.13;4.83;;;30.70;32.30;;;;;;2734047;23;20200;-88
2021/06/02 07:18:19;;;;;;;5.33;5.00;;;30.70;32.40;;;;;;5089542;23;20484;-91
2021/06/02 07:20:48;;;;;;;4.77;4.37;;;29.90;31.60;;;;;;4964823;28;20439;-90
2021/06/02 07:23:14;;;;;;;4.30;4.20;;;31.80;32.60;;;;;;4963486;28;20422;-88
2021/06/02 07:25:42;;;;;;;6.97;6.33;;;31.40;31.30;;;;;;4979057;28;20422;-87
2021/06/02 07:28:13;;;;;;;4.23;4.00;;;31.60;30.30;;;;;;4982097;28;20414;-86
2021/06/02 07:30:39;;;;;;;4.40;4.30;;;31.70;30.20;;;;;;4963970;28;20464;-88
2021/06/02 07:33:06;;;;;;;5.97;5.33;;;31.90;30.20;;;;;;4982141;28;20449;-89
2021/06/02 07:35:32;;;;;;;5.20;4.27;;;32.80;29.30;;;;;;4985409;28;20500;-90
2021/06/02 07:37:58;;;;;;;4.67;4.30;;;33.40;28.70;;;;;;4968194;28;20177;-90
2021/06/02 07:40:24;;;;;;;5.37;4.80;;;32.80;28.50;;;;;;4978901;28;20559;-89
2021/06/02 07:42:50;;;;;;;4.97;4.70;;;32.50;28.40;;;;;;4974967;28;20442;-91
2021/06/02 07:45:17;;;;;;;4.90;4.63;;;31.80;28.50;;;;;;4962457;29;20181;-91
2021/06/02 07:47:43;;;;;;;4.50;4.17;;;32.10;28.70;;;;;;4947567;29;20602;-89
2021/06/02 07:50:10;;;;;;;4.47;4.07;;;33.50;28.40;;;;;;4964345;29;20544;-88
2021/06/02 07:52:36;;;;;;;4.27;3.97;;;33.50;28.50;;;;;;4944063;29;20422;-90
2021/06/02 07:55:05;;;;;;;4.30;3.90;;;33.30;28.70;;;;;;4976063;28;20440;-89
2021/06/02 07:57:32;;;;;;;4.97;4.57;;;33.70;28.40;;;;;;4951012;28;20881;-91
2021/06/02 07:59:57;;;;;;;4.40;4.10;;;34.10;27.80;;;;;;4972128;28;20496;-92
2021/06/02 08:02:23;;;;;;;4.07;3.87;;;33.90;28.40;;;;;;4991917;28;20418;-89
2021/06/02 08:05:10;;;;;;;5.20;5.10;;;35.10;28.30;;;;;;4975440;28;20213;-91
2021/06/02 08:07:36;;;;;;;4.63;4.23;;;35.00;27.70;;;;;;4969558;28;20182;-90
2021/06/02 08:10:03;;;;;;;6.33;4.10;;;35.00;27.90;;;;;;4967654;28;20417;-88
2021/06/02 08:12:28;;;;;;;4.60;4.40;;;34.90;27.20;;;;;;4986067;28;20174;-88
2021/06/02 08:14:56;;;;;;;3.97;3.60;;;34.90;27.40;;;;;;4972568;28;20437;-88
2021/06/02 08:17:23;;;;;;;3.93;3.67;;;34.80;26.90;;;;;;4962961;29;20622;-91
2021/06/02 08:19:48;;;;;;;3.87;3.77;;;34.60;27.20;;;;;;4970896;29;20525;-89
2021/06/02 08:22:14;;;;;;;4.50;4.40;;;34.90;27.60;;;;;;4965908;29;20952;-88
2021/06/02 08:24:41;;;;;;;4.20;3.90;;;34.40;27.80;;;;;;4961853;28;20693;-90
2021/06/02 08:27:11;;;;;;;4.93;4.73;;;34.60;27.60;;;;;;4961672;29;20246;-88
2021/06/02 08:29:38;;;;;;;4.13;3.93;;;35.30;27.30;;;;;;4966482;28;20429;-91
2021/06/02 08:32:04;;;;;;;3.70;3.60;;;36.00;27.00;;;;;;4973500;28;20506;-90
2021/06/02 08:34:29;;;;;;;4.00;3.80;;;36.20;26.60;;;;;;4974344;28;20419;-90
2021/06/02 08:36:55;;;;;;;3.83;3.73;;;36.00;26.50;;;;;;4964714;28;20500;-91
2021/06/02 08:39:21;;;;;;;4.17;3.87;;;37.00;27.10;;;;;;4971169;28;20175;-87
2021/06/02 08:41:49;;;;;;;4.63;4.03;;;36.30;27.10;;;;;;4974400;29;20198;-90
2021/06/02 08:44:16;;;;;;;4.67;4.47;;;36.80;26.60;;;;;;4975182;28;20202;-90
2021/06/02 08:46:43;;;;;;;4.60;4.30;;;37.60;26.50;;;;;;4966217;29;20498;-88
2021/06/02 08:49:10;;;;;;;4.13;3.93;;;38.10;25.30;;;;;;4951606;29;20425;-90
2021/06/02 08:51:36;;;;;;;3.53;3.50;;;39.20;25.90;;;;;;4973401;28;20426;-92
2021/06/02 08:54:03;;;;;;;3.80;3.70;;;37.70;25.20;;;;;;4954375;29;20418;-95
2021/06/02 08:56:39;;;;;;;5.53;4.90;;;36.70;25.70;;;;;;4972541;29;20442;-93
2021/06/02 08:59:05;;;;;;;4.20;3.90;;;38.00;26.30;;;;;;4972909;29;20421;-91
2021/06/02 09:01:33;;;;;;;3.40;3.17;;;37.10;24.80;;;;;;4970471;28;20454;-89
2021/06/02 09:04:06;;;;;;;4.57;3.90;;;38.10;25.60;;;;;;4970715;29;20422;-92
2021/06/02 09:06:39;;;;;;;3.67;3.40;;;37.20;25.40;;;;;;4702018;28;10001106;-83
2021/06/02 09:09:06;;;;;;;4.13;4.03;;;37.50;25.70;;;;;;4935168;29;20879;-83
2021/06/02 09:11:49;;;;;;;4.20;3.90;;;37.40;25.80;;;;;;4935333;29;20771;-83
2021/06/02 09:14:35;;;;;;;4.40;4.10;;;37.50;25.40;;;;;;5022243;23;21024;-87
2021/06/02 09:17:04;;;;;;;4.50;4.20;;;37.20;25.40;;;;;;4972864;28;20449;-90
2021/06/02 09:19:47;;;;;;;4.50;4.13;;;37.00;25.20;;;;;;4958436;28;20505;-88
2021/06/02 09:22:20;;;;;;;3.87;3.77;;;36.00;25.40;;;;;;4973037;28;20505;-92
2021/06/02 09:25:00;;;;;;;3.77;3.57;;;36.40;25.50;;;;;;4977870;28;20438;-86
2021/06/02 09:27:51;;;;;;;5.03;4.63;;;36.70;25.10;;;;;;4969868;28;20439;-86
2021/06/02 09:30:22;;;;;;;4.20;4.03;;;36.80;25.30;;;;;;4974266;28;20424;-85
2021/06/02 09:32:59;;;;;;;4.10;3.90;;;37.60;24.90;;;;;;4974703;28;20429;-87
2021/06/02 09:35:40;;;;;;;6.00;4.10;;;38.20;24.80;;;;;;4975239;28;20425;-86
2021/06/02 09:38:07;;;;;;;4.67;3.87;;;38.30;24.50;;;;;;4976254;28;20496;-87
2021/06/02 09:40:35;;;;;;;5.33;3.53;;;38.10;24.80;;;;;;4973793;28;20453;-86
2021/06/02 09:43:02;;;;;;;3.63;3.57;;;38.00;24.60;;;;;;4972942;28;20448;-86
2021/06/02 09:45:28;;;;;;;3.07;2.90;;;38.50;23.50;;;;;;4973636;28;20485;-86
2021/06/02 09:47:56;;;;;;;3.47;3.20;;;38.50;23.10;;;;;;4972499;28;20817;-87
2021/06/02 09:50:28;;;;;;;2.93;2.83;;;38.90;23.30;;;;;;4974132;28;20640;-86
2021/06/02 09:52:55;;;;;;;4.10;4.00;;;38.30;23.60;;;;;;4973527;28;20441;-86
2021/06/02 09:55:25;;;;;;;3.83;3.40;;;38.30;23.40;;;;;;4973188;28;20505;-85
2021/06/02 09:58:01;;;;;;;2.63;2.63;;;38.60;23.50;;;;;;4979292;28;20405;-86
2021/06/02 10:00:29;;;;;;;3.30;3.13;;;38.70;23.00;;;;;;4979959;28;20448;-85
2021/06/02 10:02:59;;;;;;;2.93;2.77;;;39.10;22.80;;;;;;4976034;28;20433;-86
2021/06/02 10:05:37;;;;;;;2.87;2.87;;;39.30;22.90;;;;;;4975628;28;20413;-87
2021/06/02 10:08:04;;;;;;;3.10;3.00;;;39.60;22.40;;;;;;4962277;28;20430;-85
2021/06/02 10:10:31;;;;;;;3.23;3.13;;;39.20;22.40;;;;;;4955366;29;20422;-86
2021/06/02 10:13:01;;;;;;;3.63;3.40;;;39.40;22.60;;;;;;4957264;28;20454;-86
2021/06/02 10:15:47;;;;;;;2.87;2.77;;;38.50;22.60;;;;;;4956546;29;20422;-86
2021/06/02 10:18:33;;;;;;;2.53;2.50;;;38.40;22.80;;;;;;4956485;29;20481;-87
2021/06/02 10:21:09;;;;;;;3.47;3.27;;;38.00;22.40;;;;;;4956554;29;20504;-86
2021/06/02 10:23:42;;;;;;;3.40;3.30;;;37.60;23.10;;;;;;4956069;29;20423;-87
2021/06/02 10:26:09;;;;;;;3.70;3.50;;;37.60;22.90;;;;;;4954436;29;20415;-87
2021/06/02 10:28:35;;;;;;;2.80;2.60;;;37.60;23.10;;;;;;4956176;29;20450;-86
2021/06/02 10:31:04;;;;;;;2.93;2.83;;;38.00;22.70;;;;;;4955978;28;20445;-85
2021/06/02 10:33:30;;;;;;;2.20;2.20;;;38.60;22.40;;;;;;4955723;29;20518;-86
2021/06/02 10:35:58;;;;;;;3.10;2.90;;;38.40;22.30;;;;;;4954934;29;20406;-85
2021/06/02 10:38:24;;;;;;;2.50;2.50;;;38.30;22.70;;;;;;4953471;29;20448;-86
2021/06/02 10:40:51;;;;;;;2.70;2.60;;;38.30;22.50;;;;;;4956688;29;20557;-83
2021/06/02 10:43:23;;;;;;;3.20;3.00;;;38.20;22.70;;;;;;4956127;29;20426;-87
2021/06/02 10:51:45;;;;;;;3.23;3.03;;;37.50;22.60;;;;;;5075423;23;20459;-89
2021/06/02 10:54:12;;;;;;;2.87;2.77;;;38.20;23.20;;;;;;5012374;28;20415;-85
2021/06/02 10:56:54;;;;;;;2.73;2.63;;;39.00;23.00;;;;;;5011605;28;20431;-93
2021/06/02 10:59:39;;;;;;;3.17;2.97;;;39.20;22.80;;;;;;5026908;28;20411;-88
2021/06/02 11:02:10;;;;;;;2.90;2.90;;;38.80;22.50;;;;;;5029898;28;20470;-90
2021/06/02 11:04:38;;;;;;;2.80;2.80;;;38.90;22.10;;;;;;5020806;28;20404;-86
2021/06/02 11:07:20;;;;;;;2.90;2.70;;;39.20;22.40;;;;;;4639088;28;10000215;-87
2021/06/02 11:10:00;;;;;;;2.77;2.60;;;39.50;22.30;;;;;;5011822;28;20169;-91
2021/06/02 11:12:48;;;;;;;2.70;2.70;;;39.90;22.50;;;;;;4991327;28;20480;-89
2021/06/02 11:15:46;;;;;;;2.90;2.90;;;39.80;22.50;;;;;;5005469;28;20821;-91
2021/06/02 11:18:20;;;;;;;2.60;2.60;;;39.60;22.30;;;;;;5011611;28;20412;-86
2021/06/02 11:20:58;;;;;;;2.67;2.67;;;39.10;22.60;;;;;;4991713;28;20468;-89
2021/06/02 11:23:39;;;;;;;2.60;2.60;;;38.90;22.30;;;;;;4991207;28;20439;-88
2021/06/02 11:26:28;;;;;;;2.40;2.40;;;39.20;22.80;;;;;;5007504;28;20492;-89
2021/06/02 11:28:55;;;;;;;3.13;3.03;;;39.10;22.90;;;;;;4994435;28;20528;-87
2021/06/02 11:31:23;;;;;;;2.47;2.47;;;39.30;23.00;;;;;;4975686;28;20900;-87
2021/06/02 11:33:50;;;;;;;3.17;2.97;;;39.70;22.40;;;;;;4996831;28;20408;-87
2021/06/02 11:36:16;;;;;;;3.40;3.30;;;39.80;22.60;;;;;;4975697;28;20424;-88
2021/06/02 11:38:42;;;;;;;3.00;2.90;;;39.30;22.90;;;;;;4960802;28;20429;-88
2021/06/02 11:41:10;;;;;;;4.57;4.27;;;39.10;22.90;;;;;;4975625;28;20223;-87
2021/06/02 11:43:44;;;;;;;2.70;2.60;;;39.30;22.40;;;;;;4989111;28;20427;-90
2021/06/02 11:46:29;;;;;;;3.20;3.00;;;39.40;22.70;;;;;;5018827;28;20425;-91
2021/06/02 11:49:25;;;;;;;3.20;3.10;;;39.20;22.30;;;;;;5471901;23;20489;-88
2021/06/02 11:52:18;;;;;;;4.17;3.97;;;38.20;22.10;;;;;;4963176;28;20421;-90
2021/06/02 11:55:06;;;;;;;4.70;4.50;;;37.60;22.40;;;;;;4975969;28;20480;-90
2021/06/02 11:57:40;;;;;;;2.70;2.70;;;37.90;22.90;;;;;;4987026;28;20443;-88
2021/06/02 12:00:28;;;;;;;3.40;3.23;;;37.90;22.80;;;;;;4989742;28;20420;-87
2021/06/02 12:03:14;;;;;;;2.60;2.60;;;38.50;23.10;;;;;;4969459;28;20424;-91
2021/06/02 12:05:42;;;;;;;3.80;2.70;;;38.00;22.30;;;;;;4966393;28;20430;-88
2021/06/02 12:08:14;;;;;;;2.67;2.47;;;37.80;23.20;;;;;;4975678;28;20398;-87
2021/06/02 12:10:47;;;;;;;3.37;3.33;;;38.00;23.10;;;;;;5112756;23;20481;-88
2021/06/02 12:13:34;;;;;;;2.97;2.87;;;38.30;22.40;;;;;;4990056;28;20428;-88
2021/06/02 12:16:14;;;;;;;2.73;2.70;;;38.70;22.40;;;;;;5008916;28;20417;-87
2021/06/02 12:19:05;;;;;;;2.40;2.40;;;39.10;22.50;;;;;;4991443;28;20420;-88
2021/06/02 12:21:36;;;;;;;2.50;2.40;;;39.10;22.50;;;;;;4993593;28;20952;-91
2021/06/02 12:24:06;;;;;;;2.73;2.70;;;40.30;22.60;;;;;;5006855;28;20441;-91
2021/06/02 12:26:43;;;;;;;3.13;3.03;;;39.40;22.50;;;;;;4992345;28;20425;-91
2021/06/02 12:29:34;;;;;;;3.43;3.07;;;40.10;22.60;;;;;;5008427;28;20425;-89
2021/06/02 12:32:22;;;;;;;3.20;3.10;;;39.20;23.30;;;;;;4977452;28;20425;-89
2021/06/02 12:34:52;;;;;;;2.40;2.20;;;39.10;23.20;;;;;;4956652;28;20434;-89
2021/06/02 12:37:21;;;;;;;4.30;3.90;;;39.40;22.50;;;;;;4952769;29;20454;-86
2021/06/02 12:39:46;;;;;;;3.97;3.80;;;39.00;22.70;;;;;;4982570;28;20428;-87
2021/06/02 12:42:12;;;;;;;2.73;2.63;;;38.20;22.80;;;;;;5002565;28;20508;-87
2021/06/02 12:44:40;;;;;;;9.00;8.07;;;38.20;22.80;;;;;;4988580;28;20641;-85
2021/06/02 12:47:08;;;;;;;3.13;2.93;;;38.80;23.20;;;;;;4972546;28;20428;-88
2021/06/02 12:49:39;;;;;;;4.10;3.77;;;38.70;22.60;;;;;;4987424;28;20417;-89
2021/06/02 12:52:04;;;;;;;2.30;2.30;;;38.10;22.90;;;;;;4969883;28;20540;-88
2021/06/02 12:54:37;;;;;;;2.33;2.33;;;38.60;23.50;;;;;;4968633;29;20786;-90
2021/06/02 12:57:03;;;;;;;3.00;2.90;;;40.30;23.20;;;;;;4975348;28;20186;-89
2021/06/02 12:59:35;;;;;;;3.30;3.20;;;39.00;24.00;;;;;;4986087;28;20421;-88
2021/06/02 13:02:04;;;;;;;2.70;2.70;;;39.20;23.10;;;;;;4985330;28;20476;-87
2021/06/02 13:04:31;;;;;;;8.43;7.57;;;38.90;22.80;;;;;;4980126;28;20949;-88
2021/06/02 13:07:06;;;;;;;3.03;2.93;;;39.90;23.20;;;;;;4960732;28;20458;-89
2021/06/02 13:09:32;;;;;;;4.23;4.13;;;39.80;24.60;;;;;;4977555;28;20820;-92
2021/06/02 13:12:00;;;;;;;7.03;6.53;;;39.20;23.50;;;;;;4960123;29;20471;-92
2021/06/02 13:14:41;;;;;;;3.40;3.30;;;38.80;24.10;;;;;;4960021;28;20170;-90
2021/06/02 13:17:09;;;;;;;3.03;3.03;;;39.00;23.60;;;;;;4958039;29;20432;-92
2021/06/02 13:19:44;;;;;;;2.50;2.50;;;39.70;23.90;;;;;;4959042;28;20528;-92
2021/06/02 13:22:23;;;;;;;2.40;2.30;;;38.60;21.70;;;;;;4957749;29;20656;-89
2021/06/02 13:24:50;;;;;;;2.20;2.20;;;38.90;23.30;;;;;;4957916;29;20777;-90
2021/06/02 13:27:19;;;;;;;2.70;2.50;;;39.50;22.20;;;;;;4957848;29;20419;-91
2021/06/02 13:30:07;;;;;;;3.03;2.40;;;39.70;22.10;;;;;;4961853;29;20445;-91
2021/06/02 13:32:34;;;;;;;2.90;2.70;;;39.20;21.90;;;;;;4958218;29;20429;-89
2021/06/02 13:35:19;;;;;;;3.20;2.53;;;38.30;22.60;;;;;;4969882;29;20831;-91
2021/06/02 13:37:46;;;;;;;2.90;2.90;;;36.40;23.70;;;;;;4954588;29;20430;-91
2021/06/02 13:40:13;;;;;;;2.47;2.47;;;34.30;22.80;;;;;;4976710;28;20426;-89
2021/06/02 13:43:08;;;;;;;2.37;2.27;;;35.00;24.00;;;;;;4962280;29;20537;-90
2021/06/02 13:46:05;;;;;;;2.60;2.50;;;33.80;23.20;;;;;;4959579;29;20521;-88
2021/06/02 13:48:47;;;;;;;2.73;2.70;;;34.20;24.40;;;;;;4957280;29;20537;-89
2021/06/02 13:51:24;;;;;;;2.67;2.67;;;32.70;23.90;;;;;;4957944;28;20418;-90
2021/06/02 13:54:23;;;;;;;2.33;2.33;;;32.40;25.80;;;;;;4960738;28;20433;-90
2021/06/02 13:56:59;;;;;;;3.00;2.80;;;31.90;24.50;;;;;;4959188;29;20449;-90
2021/06/02 13:59:35;;;;;;;2.73;2.53;;;31.50;24.30;;;;;;4958344;29;20798;-87
2021/06/02 14:02:10;;;;;;;2.40;2.40;;;31.20;26.70;;;;;;4961417;29;20477;-89
2021/06/02 14:04:37;;;;;;;2.00;2.00;;;31.20;24.60;;;;;;4958272;29;20414;-88
2021/06/02 14:07:06;;;;;;;2.47;2.37;;;31.90;25.30;;;;;;4960705;28;20417;-88
2021/06/02 14:09:35;;;;;;;2.30;2.30;;;31.40;25.10;;;;;;4964034;28;20462;-89
2021/06/02 14:12:00;;;;;;;2.57;2.40;;;30.40;24.40;;;;;;4979898;28;21074;-92
2021/06/02 14:14:27;;;;;;;3.10;2.93;;;31.60;26.80;;;;;;4995460;28;20579;-88
2021/06/02 14:16:54;;;;;;;2.73;2.73;;;31.50;27.40;;;;;;4977102;28;20273;-91
2021/06/02 14:19:19;;;;;;;2.43;2.33;;;33.30;26.40;;;;;;4977424;28;20457;-88
2021/06/02 14:21:47;;;;;;;2.20;2.10;;;30.30;25.20;;;;;;4979087;28;20539;-87
2021/06/02 14:24:13;;;;;;;2.57;2.47;;;30.70;25.40;;;;;;4979787;28;20177;-90
2021/06/02 14:26:40;;;;;;;2.77;2.67;;;30.50;26.20;;;;;;4976478;28;20490;-88
2021/06/02 14:29:09;;;;;;;2.60;2.40;;;31.50;25.30;;;;;;4960289;28;20262;-88
2021/06/02 14:31:35;;;;;;;2.40;2.30;;;31.80;26.20;;;;;;4958080;28;20438;-88
2021/06/02 14:34:04;;;;;;;2.40;2.27;;;30.50;24.80;;;;;;4957640;29;20418;-89
2021/06/02 14:36:31;;;;;;;3.10;3.03;;;30.60;25.30;;;;;;4957558;29;20423;-86
2021/06/02 14:38:58;;;;;;;2.30;2.20;;;29.00;24.40;;;;;;4959287;29;20513;-89
2021/06/02 14:41:25;;;;;;;3.07;2.87;;;31.00;25.00;;;;;;4958601;29;20531;-85
2021/06/02 14:43:51;;;;;;;4.27;3.93;;;30.30;24.40;;;;;;4948434;29;20497;-89
2021/06/02 14:46:29;;;;;;;3.20;3.10;;;30.50;25.20;;;;;;4969419;28;20441;-89
2021/06/02 14:49:11;;;;;;;3.40;2.80;;;30.30;24.70;;;;;;4947115;29;20441;-89
2021/06/02 14:51:40;;;;;;;3.40;2.67;;;30.60;25.50;;;;;;4974598;28;20478;-87
2021/06/02 14:54:10;;;;;;;2.50;2.50;;;30.50;25.30;;;;;;4970934;28;20415;-89
2021/06/02 14:56:39;;;;;;;2.70;2.60;;;27.90;24.30;;;;;;4965861;28;20418;-89
2021/06/02 14:59:09;;;;;;;2.87;2.87;;;30.40;26.10;;;;;;4967111;28;20826;-91
2021/06/02 15:01:34;;;;;;;3.10;2.87;;;30.30;27.20;;;;;;4966467;29;20473;-87
2021/06/02 15:04:00;;;;;;;3.33;3.00;;;30.30;26.90;;;;;;4975810;28;20498;-87
2021/06/02 15:06:30;;;;;;;3.40;3.30;;;30.30;26.50;;;;;;4981421;28;20193;-88
2021/06/02 15:08:56;;;;;;;3.17;3.07;;;31.10;27.40;;;;;;4981305;28;20181;-88
2021/06/02 15:11:27;;;;;;;3.59;3.29;;;31.10;26.90;;;;;;4485673;28;10002823;-89
2021/06/02 15:13:55;;;;;;;3.20;3.10;;;30.20;27.00;;;;;;4960104;28;20167;-89
2021/06/02 15:16:21;;;;;;;3.13;3.03;;;31.50;26.70;;;;;;4958801;28;20178;-89
2021/06/02 15:18:52;;;;;;;2.50;2.50;;;30.10;26.80;;;;;;4960877;28;20757;-89
2021/06/02 15:21:18;;;;;;;2.77;2.77;;;31.60;26.30;;;;;;4957875;29;20216;-87
2021/06/02 15:23:44;;;;;;;3.03;2.93;;;29.80;26.50;;;;;;4955415;29;20445;-86
2021/06/02 15:26:10;;;;;;;2.43;2.33;;;31.40;27.00;;;;;;4955301;28;20170;-86
2021/06/02 15:28:42;;;;;;;3.70;3.60;;;29.80;26.10;;;;;;4957114;29;20421;-89
2021/06/02 15:31:09;;;;;;;3.00;3.00;;;30.90;26.70;;;;;;4965639;28;20202;-90
2021/06/02 15:33:43;;;;;;;4.73;4.43;;;29.70;26.40;;;;;;4970538;28;20417;-87
2021/06/02 15:36:14;;;;;;;3.00;3.00;;;29.80;27.00;;;;;;4965715;28;20422;-89
2021/06/02 15:38:40;;;;;;;3.40;3.30;;;30.00;28.00;;;;;;4955873;29;20527;-89
2021/06/02 15:41:13;;;;;;;3.70;3.70;;;29.80;26.90;;;;;;4961661;29;20470;-89
2021/06/02 15:43:45;;;;;;;2.80;2.80;;;31.60;27.50;;;;;;4963953;29;20418;-88
2021/06/02 15:46:12;;;;;;;3.43;3.33;;;30.90;26.50;;;;;;4962319;28;20418;-89
2021/06/02 15:48:38;;;;;;;3.60;3.40;;;30.70;27.70;;;;;;4959545;29;20426;-90
2021/06/02 15:51:04;;;;;;;3.90;3.70;;;30.80;27.50;;;;;;4958671;28;20426;-90
2021/06/02 15:53:32;;;;;;;3.13;2.93;;;29.60;26.50;;;;;;4967335;28;20702;-87
2021/06/02 15:56:01;;;;;;;2.70;2.60;;;30.20;25.90;;;;;;4969355;28;20463;-90
2021/06/02 15:58:27;;;;;;;2.73;2.63;;;31.40;26.40;;;;;;4963348;28;20414;-90
2021/06/02 16:01:04;;;;;;;2.93;2.83;;;29.70;25.90;;;;;;4961941;28;20497;-91
2021/06/02 16:03:34;;;;;;;2.57;2.57;;;29.60;26.00;;;;;;4965682;28;20855;-89
2021/06/02 16:06:02;;;;;;;2.87;2.87;;;29.60;26.40;;;;;;4964601;29;20398;-90
2021/06/02 16:08:28;;;;;;;3.30;3.30;;;29.50;25.20;;;;;;4947130;29;20503;-89
2021/06/02 16:10:54;;;;;;;3.30;3.20;;;29.70;27.50;;;;;;4979348;28;20960;-91
2021/06/02 16:13:20;;;;;;;6.47;5.97;;;29.50;26.20;;;;;;4966065;28;20428;-89
2021/06/02 16:15:45;;;;;;;3.80;3.60;;;29.50;26.50;;;;;;4947635;28;20182;-89
2021/06/02 16:18:11;;;;;;;2.60;2.60;;;29.70;26.30;;;;;;4980448;28;20325;-89
2021/06/02 16:20:45;;;;;;;18.37;13.80;;;30.40;25.70;;;;;;4962429;28;20661;-90
2021/06/02 16:23:17;;;;;;;4.67;4.27;;;29.70;25.50;;;;;;4983906;28;20259;-89
2021/06/02 16:25:47;;;;;;;6.10;5.70;;;29.70;25.40;;;;;;4973829;28;20497;-90
2021/06/02 16:28:17;;;;;;;2.60;2.50;;;30.00;25.70;;;;;;4968963;28;20784;-90
2021/06/02 16:30:52;;;;;;;4.60;4.50;;;29.70;25.60;;;;;;4965526;28;20413;-88
2021/06/02 16:33:23;;;;;;;7.23;6.83;;;30.00;25.30;;;;;;4977829;28;20484;-91
2021/06/02 16:36:01;;;;;;;6.63;6.00;;;29.50;25.50;;;;;;5003303;28;20401;-91
2021/06/02 16:38:35;;;;;;;3.50;3.20;;;31.00;26.50;;;;;;4971253;28;20412;-90
2021/06/02 16:41:05;;;;;;;3.00;3.00;;;29.30;25.40;;;;;;5009593;28;20459;-87
2021/06/02 16:43:36;;;;;;;2.40;2.40;;;29.40;26.20;;;;;;4988465;28;20424;-89
2021/06/02 16:46:06;;;;;;;4.10;3.73;;;29.60;25.60;;;;;;4984208;28;20512;-89
2021/06/02 16:48:32;;;;;;;3.50;3.37;;;30.50;27.70;;;;;;4981187;28;20448;-89
2021/06/02 16:50:57;;;;;;;3.43;3.20;;;30.90;26.80;;;;;;4998968;28;20408;-88
2021/06/02 16:53:26;;;;;;;2.57;2.57;;;30.50;27.40;;;;;;4999423;28;20814;-88
2021/06/02 16:56:04;;;;;;;3.40;3.30;;;30.90;26.20;;;;;;4990747;28;20204;-87
2021/06/02 16:58:38;;;;;;;3.13;3.03;;;29.20;26.40;;;;;;5018586;28;20499;-90
2021/06/02 17:01:05;;;;;;;3.00;2.97;;;29.50;27.60;;;;;;5016366;28;20448;-88
2021/06/02 17:03:34;;;;;;;2.80;2.80;;;31.80;27.70;;;;;;4994895;28;20479;-88
2021/06/02 17:06:04;;;;;;;2.80;2.80;;;31.80;27.80;;;;;;4998216;28;20424;-89
2021/06/02 17:08:31;;;;;;;3.10;3.00;;;29.30;26.40;;;;;;4996044;28;20420;-90
2021/06/02 17:11:00;;;;;;;4.13;2.90;;;30.90;26.60;;;;;;5012096;28;20471;-89
2021/06/02 17:13:29;;;;;;;2.37;2.20;;;28.60;26.60;;;;;;4997119;28;20432;-89
2021/06/02 17:16:06;;;;;;;3.20;3.10;;;30.20;27.40;;;;;;4997937;28;20440;-89
2021/06/02 17:18:46;;;;;;;3.80;3.70;;;29.50;26.30;;;;;;5247620;23;20513;-87
2021/06/02 17:21:22;;;;;;;3.27;3.17;;;29.00;26.30;;;;;;4977331;28;20466;-88
2021/06/02 17:23:50;;;;;;;3.33;3.23;;;29.10;26.60;;;;;;4974746;29;20430;-87
2021/06/02 17:26:20;;;;;;;3.70;3.10;;;29.30;27.00;;;;;;4973148;28;20426;-88
2021/06/02 17:28:50;;;;;;;5.50;5.20;;;29.80;27.10;;;;;;4970228;28;20422;-88
2021/06/02 17:31:18;;;;;;;3.17;3.17;;;30.00;28.00;;;;;;4975411;28;20449;-88
2021/06/02 17:33:49;;;;;;;6.03;4.27;;;32.90;29.60;;;;;;4974467;29;20415;-89
2021/06/02 17:36:41;;;;;;;12.53;11.30;;;29.00;27.30;;;;;;4972749;29;20426;-90
2021/06/02 17:39:09;;;;;;;3.07;3.07;;;29.10;26.90;;;;;;4975212;28;20422;-90
2021/06/02 17:41:38;;;;;;;3.40;3.20;;;28.40;27.60;;;;;;4970575;29;20527;-90
2021/06/02 17:44:04;;;;;;;3.47;3.20;;;28.90;26.90;;;;;;4968524;29;20419;-89
2021/06/02 17:46:30;;;;;;;2.83;2.83;;;28.80;27.50;;;;;;4964936;29;20441;-88
2021/06/02 17:48:58;;;;;;;3.23;3.07;;;28.80;29.60;;;;;;4964717;29;20426;-90
2021/06/02 17:51:25;;;;;;;2.73;2.73;;;30.40;28.20;;;;;;4968140;29;20415;-91
2021/06/02 17:54:01;;;;;;;3.40;3.40;;;28.50;27.90;;;;;;4973902;28;20458;-89
2021/06/02 17:56:37;;;;;;;3.10;3.10;;;27.00;26.90;;;;;;4976757;28;20424;-89
2021/06/02 18:05:12;;;;;;;3.40;3.40;;;30.80;28.80;;;;;;5034246;28;20164;-89
2021/06/02 18:07:45;;;;;;;3.17;3.17;;;27.00;26.60;;;;;;5019487;28;20431;-88
2021/06/02 18:10:16;;;;;;;2.90;2.80;;;30.90;29.00;;;;;;5037106;28;20431;-88
2021/06/02 18:15:18;;;;;;;4.30;4.07;;;28.30;27.70;;;;;;5205830;23;20457;-88
2021/06/02 18:17:59;;;;;;;4.10;3.97;;;30.30;28.80;;;;;;5035549;28;20404;-89
2021/06/02 18:20:42;;;;;;;4.00;3.90;;;29.00;28.20;;;;;;5018221;28;20430;-90
2021/06/02 18:23:14;;;;;;;4.13;4.03;;;28.50;29.40;;;;;;5019303;28;20446;-88
2021/06/02 18:25:49;;;;;;;3.70;3.60;;;29.20;29.60;;;;;;5017292;28;20427;-89
2021/06/02 18:28:27;;;;;;;;;;;;;;;;;;;;;
2021/06/02 18:30:54;;;;;;;3.70;3.40;;;27.90;29.70;;;;;;5034475;28;20450;-90
2021/06/02 18:33:25;;;;;;;4.07;3.23;;;28.10;30.30;;;;;;5030647;28;20435;-89
2021/06/02 18:35:52;;;;;;;6.37;4.10;;;27.00;29.10;;;;;;5012295;28;20495;-88
2021/06/02 18:38:17;;;;;;;3.50;3.30;;;29.00;31.00;;;;;;5006833;28;20416;-90
2021/06/02 18:40:48;;;;;;;3.50;3.40;;;27.90;29.90;;;;;;5010226;28;20542;-90
2021/06/02 18:43:22;;;;;;;4.87;4.67;;;27.90;30.00;;;;;;5010731;28;20181;-90
2021/06/02 18:45:50;;;;;;;7.20;6.60;;;28.40;29.50;;;;;;5030557;28;20454;-91
2021/06/02 18:48:51;;;;;;;8.20;5.50;;;26.50;32.60;;;;;;5013084;28;20430;-91